sensor_id;sensor_type;location;lat;lon;timestamp;P1;durP1;ratioP1;P2;durP2;ratioP2
40955;SDS011;26687;48.254;11.454;2023-08-24T00:02:29;4.00;;;3.70;;
40955;SDS011;26687;48.254;11.454;2023-08-24T00:05:32;4.78;;;4.18;;
40955;SDS011;26687;48.254;11.454;2023-08-24T00:08:32;5.15;;;4.13;;
40955;SDS011;26687;48.254;11.454;2023-08-24T00:11:33;5.15;;;3.78;;
40955;SDS011;26687;48.254;11.454;2023-08-24T00:14:33;5.05;;;4.00;;
40955;SDS011;26687;48.254;11.454;2023-08-24T00:17:33;5.72;;;4.22;;
40955;SDS011;26687;48.254;11.454;2023-08-24T00:20:33;4.97;;;4.50;;
40955;SDS011;26687;48.254;11.454;2023-08-24T00:23:33;6.63;;;4.50;;
40955;SDS011;26687;48.254;11.454;2023-08-24T00:26:34;4.83;;;4.00;;
40955;SDS011;26687;48.254;11.454;2023-08-24T00:29:34;5.43;;;4.05;;
40955;SDS011;26687;48.254;11.454;2023-08-24T00:32:35;4.53;;;4.13;;
40955;SDS011;26687;48.254;11.454;2023-08-24T00:35:35;4.85;;;4.35;;
40955;SDS011;26687;48.254;11.454;2023-08-24T00:38:35;4.18;;;3.88;;
40955;SDS011;26687;48.254;11.454;2023-08-24T00:41:36;4.15;;;3.85;;
40955;SDS011;26687;48.254;11.454;2023-08-24T00:44:36;4.80;;;3.95;;
40955;SDS011;26687;48.254;11.454;2023-08-24T00:47:37;8.38;;;4.30;;
40955;SDS011;26687;48.254;11.454;2023-08-24T00:50:38;4.22;;;3.85;;
40955;SDS011;26687;48.254;11.454;2023-08-24T00:53:38;4.68;;;4.28;;
40955;SDS011;26687;48.254;11.454;2023-08-24T00:56:39;4.10;;;3.80;;
40955;SDS011;26687;48.254;11.454;2023-08-24T00:59:40;5.38;;;4.03;;
40955;SDS011;26687;48.254;11.454;2023-08-24T01:02:40;6.57;;;4.80;;
40955;SDS011;26687;48.254;11.454;2023-08-24T01:05:40;6.23;;;4.57;;
40955;SDS011;26687;48.254;11.454;2023-08-24T01:08:40;5.07;;;4.68;;
40955;SDS011;26687;48.254;11.454;2023-08-24T01:11:49;4.93;;;4.53;;
40955;SDS011;26687;48.254;11.454;2023-08-24T01:15:00;4.97;;;4.57;;
40955;SDS011;26687;48.254;11.454;2023-08-24T01:18:06;5.18;;;4.50;;
40955;SDS011;26687;48.254;11.454;2023-08-24T01:21:08;4.40;;;4.05;;
40955;SDS011;26687;48.254;11.454;2023-08-24T01:24:10;5.10;;;4.65;;
40955;SDS011;26687;48.254;11.454;2023-08-24T01:27:12;5.35;;;4.88;;
40955;SDS011;26687;48.254;11.454;2023-08-24T01:30:12;5.23;;;4.67;;
40955;SDS011;26687;48.254;11.454;2023-08-24T01:33:13;5.10;;;4.70;;
40955;SDS011;26687;48.254;11.454;2023-08-24T01:36:14;4.95;;;4.55;;
40955;SDS011;26687;48.254;11.454;2023-08-24T01:39:18;4.88;;;4.38;;
40955;SDS011;26687;48.254;11.454;2023-08-24T01:42:21;4.78;;;4.40;;
40955;SDS011;26687;48.254;11.454;2023-08-24T01:45:28;5.18;;;4.70;;
40955;SDS011;26687;48.254;11.454;2023-08-24T01:48:29;5.45;;;4.93;;
40955;SDS011;26687;48.254;11.454;2023-08-24T01:51:29;5.22;;;4.50;;
40955;SDS011;26687;48.254;11.454;2023-08-24T01:54:30;5.65;;;5.13;;
40955;SDS011;26687;48.254;11.454;2023-08-24T01:57:32;5.33;;;4.83;;
40955;SDS011;26687;48.254;11.454;2023-08-24T02:00:32;5.30;;;4.70;;
40955;SDS011;26687;48.254;11.454;2023-08-24T02:03:32;6.37;;;5.00;;
40955;SDS011;26687;48.254;11.454;2023-08-24T02:06:32;5.50;;;5.00;;
40955;SDS011;26687;48.254;11.454;2023-08-24T02:09:33;5.40;;;4.90;;
40955;SDS011;26687;48.254;11.454;2023-08-24T02:12:33;5.43;;;5.03;;
40955;SDS011;26687;48.254;11.454;2023-08-24T02:15:33;5.13;;;4.73;;
40955;SDS011;26687;48.254;11.454;2023-08-24T02:18:33;5.80;;;5.27;;
40955;SDS011;26687;48.254;11.454;2023-08-24T02:21:36;6.17;;;5.57;;
40955;SDS011;26687;48.254;11.454;2023-08-24T02:24:37;5.25;;;4.85;;
40955;SDS011;26687;48.254;11.454;2023-08-24T02:27:37;5.25;;;4.78;;
40955;SDS011;26687;48.254;11.454;2023-08-24T02:30:37;5.40;;;5.00;;
40955;SDS011;26687;48.254;11.454;2023-08-24T02:33:38;5.13;;;4.65;;
40955;SDS011;26687;48.254;11.454;2023-08-24T02:36:38;5.60;;;5.10;;
40955;SDS011;26687;48.254;11.454;2023-08-24T02:39:39;6.07;;;5.53;;
40955;SDS011;26687;48.254;11.454;2023-08-24T02:42:39;5.88;;;5.38;;
40955;SDS011;26687;48.254;11.454;2023-08-24T02:45:39;5.10;;;4.70;;
40955;SDS011;26687;48.254;11.454;2023-08-24T02:48:39;5.10;;;4.70;;
40955;SDS011;26687;48.254;11.454;2023-08-24T02:51:40;6.05;;;5.55;;
40955;SDS011;26687;48.254;11.454;2023-08-24T02:54:41;6.00;;;5.45;;
40955;SDS011;26687;48.254;11.454;2023-08-24T02:57:42;5.50;;;5.10;;
40955;SDS011;26687;48.254;11.454;2023-08-24T03:00:42;5.67;;;5.13;;
40955;SDS011;26687;48.254;11.454;2023-08-24T03:03:42;5.80;;;5.33;;
40955;SDS011;26687;48.254;11.454;2023-08-24T03:06:43;5.63;;;5.13;;
40955;SDS011;26687;48.254;11.454;2023-08-24T03:09:43;5.72;;;5.30;;
40955;SDS011;26687;48.254;11.454;2023-08-24T03:12:43;5.82;;;5.32;;
40955;SDS011;26687;48.254;11.454;2023-08-24T03:15:43;6.50;;;6.00;;
40955;SDS011;26687;48.254;11.454;2023-08-24T03:18:44;5.28;;;4.88;;
40955;SDS011;26687;48.254;11.454;2023-08-24T03:21:44;6.63;;;5.88;;
40955;SDS011;26687;48.254;11.454;2023-08-24T03:24:44;5.87;;;5.43;;
40955;SDS011;26687;48.254;11.454;2023-08-24T03:27:44;6.30;;;5.70;;
40955;SDS011;26687;48.254;11.454;2023-08-24T03:30:46;6.00;;;5.50;;
40955;SDS011;26687;48.254;11.454;2023-08-24T03:33:46;5.85;;;5.35;;
40955;SDS011;26687;48.254;11.454;2023-08-24T03:36:46;5.88;;;5.45;;
40955;SDS011;26687;48.254;11.454;2023-08-24T03:39:47;6.88;;;6.25;;
40955;SDS011;26687;48.254;11.454;2023-08-24T03:42:48;7.13;;;6.53;;
40955;SDS011;26687;48.254;11.454;2023-08-24T03:45:48;6.53;;;6.03;;
40955;SDS011;26687;48.254;11.454;2023-08-24T03:48:48;6.47;;;5.97;;
40955;SDS011;26687;48.254;11.454;2023-08-24T03:51:48;6.15;;;5.60;;
40955;SDS011;26687;48.254;11.454;2023-08-24T03:54:49;6.85;;;6.25;;
40955;SDS011;26687;48.254;11.454;2023-08-24T03:57:49;6.93;;;6.32;;
40955;SDS011;26687;48.254;11.454;2023-08-24T04:00:49;6.93;;;5.93;;
40955;SDS011;26687;48.254;11.454;2023-08-24T04:03:50;6.68;;;6.00;;
40955;SDS011;26687;48.254;11.454;2023-08-24T04:06:50;5.80;;;5.30;;
40955;SDS011;26687;48.254;11.454;2023-08-24T04:09:50;6.45;;;5.85;;
40955;SDS011;26687;48.254;11.454;2023-08-24T04:12:50;6.70;;;6.17;;
40955;SDS011;26687;48.254;11.454;2023-08-24T04:15:50;6.40;;;5.90;;
40955;SDS011;26687;48.254;11.454;2023-08-24T04:18:51;6.45;;;5.95;;
40955;SDS011;26687;48.254;11.454;2023-08-24T04:21:51;6.67;;;6.17;;
40955;SDS011;26687;48.254;11.454;2023-08-24T04:24:51;6.38;;;5.88;;
40955;SDS011;26687;48.254;11.454;2023-08-24T04:27:51;6.50;;;5.85;;
40955;SDS011;26687;48.254;11.454;2023-08-24T04:30:54;6.75;;;6.18;;
40955;SDS011;26687;48.254;11.454;2023-08-24T04:33:56;7.40;;;6.70;;
40955;SDS011;26687;48.254;11.454;2023-08-24T04:36:56;7.07;;;6.45;;
40955;SDS011;26687;48.254;11.454;2023-08-24T04:39:56;7.70;;;7.00;;
40955;SDS011;26687;48.254;11.454;2023-08-24T04:42:56;7.25;;;6.55;;
40955;SDS011;26687;48.254;11.454;2023-08-24T04:45:56;7.85;;;7.05;;
40955;SDS011;26687;48.254;11.454;2023-08-24T04:48:56;7.50;;;6.90;;
40955;SDS011;26687;48.254;11.454;2023-08-24T04:51:57;7.63;;;6.97;;
40955;SDS011;26687;48.254;11.454;2023-08-24T04:54:57;7.67;;;6.93;;
40955;SDS011;26687;48.254;11.454;2023-08-24T04:57:57;7.32;;;6.72;;
40955;SDS011;26687;48.254;11.454;2023-08-24T05:00:57;8.23;;;7.30;;
40955;SDS011;26687;48.254;11.454;2023-08-24T05:03:58;7.47;;;6.88;;
40955;SDS011;26687;48.254;11.454;2023-08-24T05:06:58;7.85;;;7.15;;
40955;SDS011;26687;48.254;11.454;2023-08-24T05:09:58;7.63;;;7.13;;
40955;SDS011;26687;48.254;11.454;2023-08-24T05:12:58;8.65;;;7.85;;
40955;SDS011;26687;48.254;11.454;2023-08-24T05:15:59;8.32;;;7.53;;
40955;SDS011;26687;48.254;11.454;2023-08-24T05:18:59;7.90;;;7.30;;
40955;SDS011;26687;48.254;11.454;2023-08-24T05:21:59;8.00;;;7.40;;
40955;SDS011;26687;48.254;11.454;2023-08-24T05:24:59;8.18;;;7.22;;
40955;SDS011;26687;48.254;11.454;2023-08-24T05:28:00;7.95;;;7.32;;
40955;SDS011;26687;48.254;11.454;2023-08-24T05:31:00;7.63;;;7.03;;
40955;SDS011;26687;48.254;11.454;2023-08-24T05:34:00;8.07;;;7.27;;
40955;SDS011;26687;48.254;11.454;2023-08-24T05:37:00;8.20;;;7.60;;
40955;SDS011;26687;48.254;11.454;2023-08-24T05:40:01;7.93;;;7.32;;
40955;SDS011;26687;48.254;11.454;2023-08-24T05:43:01;8.27;;;7.45;;
40955;SDS011;26687;48.254;11.454;2023-08-24T05:46:01;8.50;;;7.70;;
40955;SDS011;26687;48.254;11.454;2023-08-24T05:49:03;8.35;;;7.63;;
40955;SDS011;26687;48.254;11.454;2023-08-24T05:52:03;7.90;;;7.20;;
40955;SDS011;26687;48.254;11.454;2023-08-24T05:55:03;8.00;;;7.30;;
40955;SDS011;26687;48.254;11.454;2023-08-24T05:58:04;7.95;;;7.35;;
40955;SDS011;26687;48.254;11.454;2023-08-24T06:01:04;8.00;;;7.38;;
40955;SDS011;26687;48.254;11.454;2023-08-24T06:04:08;7.97;;;7.38;;
40955;SDS011;26687;48.254;11.454;2023-08-24T06:07:08;8.32;;;7.68;;
40955;SDS011;26687;48.254;11.454;2023-08-24T06:10:08;8.38;;;7.55;;
40955;SDS011;26687;48.254;11.454;2023-08-24T06:13:09;7.85;;;7.15;;
40955;SDS011;26687;48.254;11.454;2023-08-24T06:16:09;8.10;;;7.30;;
40955;SDS011;26687;48.254;11.454;2023-08-24T06:19:09;6.97;;;6.47;;
40955;SDS011;26687;48.254;11.454;2023-08-24T06:22:09;6.57;;;5.97;;
40955;SDS011;26687;48.254;11.454;2023-08-24T06:25:09;4.78;;;4.38;;
40955;SDS011;26687;48.254;11.454;2023-08-24T06:28:11;8.38;;;7.15;;
40955;SDS011;26687;48.254;11.454;2023-08-24T06:31:11;6.65;;;6.13;;
40955;SDS011;26687;48.254;11.454;2023-08-24T06:34:11;6.47;;;5.90;;
40955;SDS011;26687;48.254;11.454;2023-08-24T06:37:11;6.13;;;5.57;;
40955;SDS011;26687;48.254;11.454;2023-08-24T06:40:12;8.40;;;7.70;;
40955;SDS011;26687;48.254;11.454;2023-08-24T06:43:12;7.97;;;6.13;;
40955;SDS011;26687;48.254;11.454;2023-08-24T06:46:12;6.43;;;5.90;;
40955;SDS011;26687;48.254;11.454;2023-08-24T06:49:12;4.40;;;4.00;;
40955;SDS011;26687;48.254;11.454;2023-08-24T06:52:13;7.47;;;5.97;;
40955;SDS011;26687;48.254;11.454;2023-08-24T06:55:13;6.87;;;5.77;;
40955;SDS011;26687;48.254;11.454;2023-08-24T06:58:13;7.37;;;5.90;;
40955;SDS011;26687;48.254;11.454;2023-08-24T07:01:14;6.22;;;5.63;;
40955;SDS011;26687;48.254;11.454;2023-08-24T07:04:14;5.15;;;4.75;;
40955;SDS011;26687;48.254;11.454;2023-08-24T07:07:14;4.40;;;4.00;;
40955;SDS011;26687;48.254;11.454;2023-08-24T07:10:15;4.70;;;4.20;;
40955;SDS011;26687;48.254;11.454;2023-08-24T07:13:15;5.03;;;4.50;;
40955;SDS011;26687;48.254;11.454;2023-08-24T07:16:15;4.22;;;3.70;;
40955;SDS011;26687;48.254;11.454;2023-08-24T07:19:15;3.92;;;3.55;;
40955;SDS011;26687;48.254;11.454;2023-08-24T07:22:15;4.38;;;3.97;;
40955;SDS011;26687;48.254;11.454;2023-08-24T07:25:16;4.03;;;3.63;;
40955;SDS011;26687;48.254;11.454;2023-08-24T07:28:17;4.53;;;4.05;;
40955;SDS011;26687;48.254;11.454;2023-08-24T07:31:17;3.10;;;2.90;;
40955;SDS011;26687;48.254;11.454;2023-08-24T07:34:18;5.18;;;4.78;;
40955;SDS011;26687;48.254;11.454;2023-08-24T07:37:19;3.88;;;3.58;;
40955;SDS011;26687;48.254;11.454;2023-08-24T07:40:19;6.93;;;4.40;;
40955;SDS011;26687;48.254;11.454;2023-08-24T07:43:19;5.13;;;4.17;;
40955;SDS011;26687;48.254;11.454;2023-08-24T07:46:19;2.80;;;2.60;;
40955;SDS011;26687;48.254;11.454;2023-08-24T07:49:19;4.37;;;3.97;;
40955;SDS011;26687;48.254;11.454;2023-08-24T07:52:20;3.90;;;2.92;;
40955;SDS011;26687;48.254;11.454;2023-08-24T07:55:22;5.20;;;4.35;;
40955;SDS011;26687;48.254;11.454;2023-08-24T07:58:22;4.40;;;4.00;;
40955;SDS011;26687;48.254;11.454;2023-08-24T08:01:22;6.03;;;4.13;;
40955;SDS011;26687;48.254;11.454;2023-08-24T08:04:22;4.33;;;3.93;;
40955;SDS011;26687;48.254;11.454;2023-08-24T08:07:22;4.57;;;4.10;;
40955;SDS011;26687;48.254;11.454;2023-08-24T08:10:23;5.03;;;4.53;;
40955;SDS011;26687;48.254;11.454;2023-08-24T08:13:23;5.05;;;4.05;;
40955;SDS011;26687;48.254;11.454;2023-08-24T08:16:23;4.97;;;3.88;;
40955;SDS011;26687;48.254;11.454;2023-08-24T08:19:24;4.57;;;4.10;;
40955;SDS011;26687;48.254;11.454;2023-08-24T08:25:27;4.03;;;3.72;;
40955;SDS011;26687;48.254;11.454;2023-08-24T08:28:28;4.82;;;4.25;;
40955;SDS011;26687;48.254;11.454;2023-08-24T08:31:28;4.40;;;3.93;;
40955;SDS011;26687;48.254;11.454;2023-08-24T08:34:28;4.80;;;4.30;;
40955;SDS011;26687;48.254;11.454;2023-08-24T08:37:30;4.05;;;3.53;;
40955;SDS011;26687;48.254;11.454;2023-08-24T08:40:30;3.88;;;3.58;;
40955;SDS011;26687;48.254;11.454;2023-08-24T08:43:30;4.30;;;3.90;;
40955;SDS011;26687;48.254;11.454;2023-08-24T08:46:31;3.65;;;3.20;;
40955;SDS011;26687;48.254;11.454;2023-08-24T08:49:32;9.85;;;5.22;;
40955;SDS011;26687;48.254;11.454;2023-08-24T08:52:34;3.92;;;3.28;;
40955;SDS011;26687;48.254;11.454;2023-08-24T08:55:35;6.85;;;3.80;;
40955;SDS011;26687;48.254;11.454;2023-08-24T08:58:36;6.93;;;4.28;;
40955;SDS011;26687;48.254;11.454;2023-08-24T09:01:37;4.93;;;4.43;;
40955;SDS011;26687;48.254;11.454;2023-08-24T09:04:37;3.67;;;3.30;;
40955;SDS011;26687;48.254;11.454;2023-08-24T09:07:41;4.78;;;4.28;;
40955;SDS011;26687;48.254;11.454;2023-08-24T09:10:42;4.85;;;4.43;;
40955;SDS011;26687;48.254;11.454;2023-08-24T09:13:42;4.00;;;3.70;;
40955;SDS011;26687;48.254;11.454;2023-08-24T09:16:42;5.95;;;5.40;;
40955;SDS011;26687;48.254;11.454;2023-08-24T09:19:42;5.13;;;4.07;;
40955;SDS011;26687;48.254;11.454;2023-08-24T09:22:42;6.22;;;5.00;;
40955;SDS011;26687;48.254;11.454;2023-08-24T09:25:47;5.75;;;5.25;;
40955;SDS011;26687;48.254;11.454;2023-08-24T09:28:48;6.38;;;5.05;;
40955;SDS011;26687;48.254;11.454;2023-08-24T09:31:49;8.50;;;4.40;;
40955;SDS011;26687;48.254;11.454;2023-08-24T09:34:50;6.00;;;4.47;;
40955;SDS011;26687;48.254;11.454;2023-08-24T09:37:50;5.00;;;4.53;;
40955;SDS011;26687;48.254;11.454;2023-08-24T09:40:51;4.40;;;4.00;;
40955;SDS011;26687;48.254;11.454;2023-08-24T09:43:51;5.53;;;4.75;;
40955;SDS011;26687;48.254;11.454;2023-08-24T09:46:51;4.97;;;4.57;;
40955;SDS011;26687;48.254;11.454;2023-08-24T09:49:51;5.40;;;4.53;;
40955;SDS011;26687;48.254;11.454;2023-08-24T09:52:52;6.57;;;4.55;;
40955;SDS011;26687;48.254;11.454;2023-08-24T09:58:54;5.03;;;4.57;;
40955;SDS011;26687;48.254;11.454;2023-08-24T10:01:55;4.63;;;4.22;;
40955;SDS011;26687;48.254;11.454;2023-08-24T10:04:57;5.78;;;4.47;;
40955;SDS011;26687;48.254;11.454;2023-08-24T10:07:57;7.45;;;4.68;;
40955;SDS011;26687;48.254;11.454;2023-08-24T10:10:58;5.40;;;4.00;;
40955;SDS011;26687;48.254;11.454;2023-08-24T10:14:10;4.38;;;3.97;;
40955;SDS011;26687;48.254;11.454;2023-08-24T10:17:12;4.80;;;4.35;;
40955;SDS011;26687;48.254;11.454;2023-08-24T10:20:13;6.00;;;5.30;;
40955;SDS011;26687;48.254;11.454;2023-08-24T10:23:14;5.63;;;4.53;;
40955;SDS011;26687;48.254;11.454;2023-08-24T10:26:15;6.72;;;5.32;;
40955;SDS011;26687;48.254;11.454;2023-08-24T10:29:17;6.10;;;4.53;;
40955;SDS011;26687;48.254;11.454;2023-08-24T10:32:19;7.22;;;4.32;;
40955;SDS011;26687;48.254;11.454;2023-08-24T10:35:19;6.28;;;4.40;;
40955;SDS011;26687;48.254;11.454;2023-08-24T10:38:24;5.72;;;4.10;;
40955;SDS011;26687;48.254;11.454;2023-08-24T10:41:26;8.10;;;5.30;;
40955;SDS011;26687;48.254;11.454;2023-08-24T10:44:35;4.35;;;3.95;;
40955;SDS011;26687;48.254;11.454;2023-08-24T10:47:43;4.32;;;3.90;;
40955;SDS011;26687;48.254;11.454;2023-08-24T10:50:53;4.55;;;4.10;;
40955;SDS011;26687;48.254;11.454;2023-08-24T10:54:03;6.00;;;4.30;;
40955;SDS011;26687;48.254;11.454;2023-08-24T10:57:04;4.57;;;3.70;;
40955;SDS011;26687;48.254;11.454;2023-08-24T11:03:09;4.00;;;3.70;;
40955;SDS011;26687;48.254;11.454;2023-08-24T11:06:20;4.15;;;3.78;;
40955;SDS011;26687;48.254;11.454;2023-08-24T11:09:20;4.25;;;3.90;;
40955;SDS011;26687;48.254;11.454;2023-08-24T11:12:21;4.38;;;4.00;;
40955;SDS011;26687;48.254;11.454;2023-08-24T11:15:37;5.30;;;4.00;;
40955;SDS011;26687;48.254;11.454;2023-08-24T11:18:39;3.78;;;3.47;;
40955;SDS011;26687;48.254;11.454;2023-08-24T11:21:39;3.97;;;3.55;;
40955;SDS011;26687;48.254;11.454;2023-08-24T11:24:40;4.60;;;4.18;;
40955;SDS011;26687;48.254;11.454;2023-08-24T11:27:40;4.43;;;4.13;;
40955;SDS011;26687;48.254;11.454;2023-08-24T11:30:41;5.05;;;4.43;;
40955;SDS011;26687;48.254;11.454;2023-08-24T11:33:42;5.93;;;3.72;;
40955;SDS011;26687;48.254;11.454;2023-08-24T11:36:43;4.25;;;3.85;;
40955;SDS011;26687;48.254;11.454;2023-08-24T11:39:45;3.60;;;3.25;;
40955;SDS011;26687;48.254;11.454;2023-08-24T11:42:45;4.40;;;3.58;;
40955;SDS011;26687;48.254;11.454;2023-08-24T11:45:45;4.55;;;3.65;;
40955;SDS011;26687;48.254;11.454;2023-08-24T11:48:46;5.97;;;4.10;;
40955;SDS011;26687;48.254;11.454;2023-08-24T11:51:47;4.13;;;3.73;;
40955;SDS011;26687;48.254;11.454;2023-08-24T11:54:51;4.20;;;3.90;;
40955;SDS011;26687;48.254;11.454;2023-08-24T11:57:51;3.65;;;3.38;;
40955;SDS011;26687;48.254;11.454;2023-08-24T12:00:51;3.70;;;3.08;;
40955;SDS011;26687;48.254;11.454;2023-08-24T12:03:51;4.93;;;3.77;;
40955;SDS011;26687;48.254;11.454;2023-08-24T12:06:52;4.63;;;4.00;;
40955;SDS011;26687;48.254;11.454;2023-08-24T12:09:52;4.67;;;3.57;;
40955;SDS011;26687;48.254;11.454;2023-08-24T12:13:03;4.22;;;3.72;;
40955;SDS011;26687;48.254;11.454;2023-08-24T12:16:04;4.10;;;3.70;;
40955;SDS011;26687;48.254;11.454;2023-08-24T12:19:07;6.25;;;4.80;;
40955;SDS011;26687;48.254;11.454;2023-08-24T12:22:07;4.65;;;3.92;;
40955;SDS011;26687;48.254;11.454;2023-08-24T12:25:07;4.07;;;3.78;;
40955;SDS011;26687;48.254;11.454;2023-08-24T12:28:16;4.15;;;3.53;;
40955;SDS011;26687;48.254;11.454;2023-08-24T12:31:17;5.07;;;3.47;;
40955;SDS011;26687;48.254;11.454;2023-08-24T12:34:17;4.70;;;3.50;;
40955;SDS011;26687;48.254;11.454;2023-08-24T12:37:17;3.90;;;3.60;;
40955;SDS011;26687;48.254;11.454;2023-08-24T12:40:18;8.37;;;3.93;;
40955;SDS011;26687;48.254;11.454;2023-08-24T12:43:18;4.43;;;3.87;;
40955;SDS011;26687;48.254;11.454;2023-08-24T12:46:18;4.67;;;3.53;;
40955;SDS011;26687;48.254;11.454;2023-08-24T12:49:18;4.30;;;3.73;;
40955;SDS011;26687;48.254;11.454;2023-08-24T12:52:19;4.40;;;3.47;;
40955;SDS011;26687;48.254;11.454;2023-08-24T12:55:19;5.25;;;3.78;;
40955;SDS011;26687;48.254;11.454;2023-08-24T12:58:19;3.60;;;3.30;;
40955;SDS011;26687;48.254;11.454;2023-08-24T13:01:20;4.28;;;3.83;;
40955;SDS011;26687;48.254;11.454;2023-08-24T13:04:20;5.57;;;3.90;;
40955;SDS011;26687;48.254;11.454;2023-08-24T13:07:20;8.43;;;4.00;;
40955;SDS011;26687;48.254;11.454;2023-08-24T13:10:20;5.20;;;3.50;;
40955;SDS011;26687;48.254;11.454;2023-08-24T13:13:21;5.03;;;3.70;;
40955;SDS011;26687;48.254;11.454;2023-08-24T13:16:21;4.60;;;3.70;;
40955;SDS011;26687;48.254;11.454;2023-08-24T13:19:21;3.72;;;3.42;;
40955;SDS011;26687;48.254;11.454;2023-08-24T13:22:21;5.80;;;3.47;;
40955;SDS011;26687;48.254;11.454;2023-08-24T13:25:21;5.07;;;3.60;;
40955;SDS011;26687;48.254;11.454;2023-08-24T13:28:22;3.90;;;3.28;;
40955;SDS011;26687;48.254;11.454;2023-08-24T13:31:22;4.28;;;3.83;;
40955;SDS011;26687;48.254;11.454;2023-08-24T13:34:22;4.60;;;3.60;;
40955;SDS011;26687;48.254;11.454;2023-08-24T13:37:22;9.02;;;4.00;;
40955;SDS011;26687;48.254;11.454;2023-08-24T13:40:24;4.30;;;3.60;;
40955;SDS011;26687;48.254;11.454;2023-08-24T13:43:24;7.07;;;3.85;;
40955;SDS011;26687;48.254;11.454;2023-08-24T13:46:24;3.92;;;3.53;;
40955;SDS011;26687;48.254;11.454;2023-08-24T13:49:24;4.23;;;3.60;;
40955;SDS011;26687;48.254;11.454;2023-08-24T13:52:25;3.80;;;3.37;;
40955;SDS011;26687;48.254;11.454;2023-08-24T13:55:25;5.80;;;3.40;;
40955;SDS011;26687;48.254;11.454;2023-08-24T13:58:25;4.05;;;3.60;;
40955;SDS011;26687;48.254;11.454;2023-08-24T14:01:25;4.90;;;3.70;;
40955;SDS011;26687;48.254;11.454;2023-08-24T14:04:25;5.20;;;3.50;;
40955;SDS011;26687;48.254;11.454;2023-08-24T14:07:25;7.93;;;4.05;;
40955;SDS011;26687;48.254;11.454;2023-08-24T14:10:26;4.43;;;3.67;;
40955;SDS011;26687;48.254;11.454;2023-08-24T14:13:26;7.93;;;4.07;;
40955;SDS011;26687;48.254;11.454;2023-08-24T14:16:26;5.73;;;4.40;;
40955;SDS011;26687;48.254;11.454;2023-08-24T14:19:26;5.28;;;3.90;;
40955;SDS011;26687;48.254;11.454;2023-08-24T14:22:27;4.43;;;4.00;;
40955;SDS011;26687;48.254;11.454;2023-08-24T14:25:27;5.07;;;3.77;;
40955;SDS011;26687;48.254;11.454;2023-08-24T14:28:46;7.72;;;4.65;;
40955;SDS011;26687;48.254;11.454;2023-08-24T14:31:46;6.00;;;4.20;;
40955;SDS011;26687;48.254;11.454;2023-08-24T14:34:46;5.75;;;3.95;;
40955;SDS011;26687;48.254;11.454;2023-08-24T14:37:48;5.90;;;3.80;;
40955;SDS011;26687;48.254;11.454;2023-08-24T14:40:48;4.80;;;3.60;;
40955;SDS011;26687;48.254;11.454;2023-08-24T14:43:48;4.32;;;3.67;;
40955;SDS011;26687;48.254;11.454;2023-08-24T14:46:48;4.27;;;3.33;;
40955;SDS011;26687;48.254;11.454;2023-08-24T14:49:48;3.78;;;3.40;;
40955;SDS011;26687;48.254;11.454;2023-08-24T14:52:48;5.93;;;3.97;;
40955;SDS011;26687;48.254;11.454;2023-08-24T14:55:49;4.13;;;3.72;;
40955;SDS011;26687;48.254;11.454;2023-08-24T14:58:49;4.80;;;4.35;;
40955;SDS011;26687;48.254;11.454;2023-08-24T15:01:49;4.80;;;3.57;;
40955;SDS011;26687;48.254;11.454;2023-08-24T15:04:49;4.75;;;3.60;;
40955;SDS011;26687;48.254;11.454;2023-08-24T15:07:50;5.22;;;3.97;;
40955;SDS011;26687;48.254;11.454;2023-08-24T15:10:50;4.38;;;3.88;;
40955;SDS011;26687;48.254;11.454;2023-08-24T15:13:50;4.83;;;3.53;;
40955;SDS011;26687;48.254;11.454;2023-08-24T15:16:50;3.80;;;3.50;;
40955;SDS011;26687;48.254;11.454;2023-08-24T15:19:51;5.05;;;3.55;;
40955;SDS011;26687;48.254;11.454;2023-08-24T15:22:51;6.22;;;3.65;;
40955;SDS011;26687;48.254;11.454;2023-08-24T15:25:54;4.10;;;3.27;;
40955;SDS011;26687;48.254;11.454;2023-08-24T15:32:08;8.40;;;4.18;;
40955;SDS011;26687;48.254;11.454;2023-08-24T15:35:09;20.40;;;6.45;;
40955;SDS011;26687;48.254;11.454;2023-08-24T15:38:09;4.50;;;3.47;;
40955;SDS011;26687;48.254;11.454;2023-08-24T15:41:09;5.38;;;3.90;;
40955;SDS011;26687;48.254;11.454;2023-08-24T15:44:10;5.27;;;4.13;;
40955;SDS011;26687;48.254;11.454;2023-08-24T15:47:10;4.55;;;3.35;;
40955;SDS011;26687;48.254;11.454;2023-08-24T15:50:10;4.80;;;3.90;;
40955;SDS011;26687;48.254;11.454;2023-08-24T15:53:10;4.65;;;3.78;;
40955;SDS011;26687;48.254;11.454;2023-08-24T15:56:10;4.55;;;3.40;;
40955;SDS011;26687;48.254;11.454;2023-08-24T15:59:11;5.30;;;4.15;;
40955;SDS011;26687;48.254;11.454;2023-08-24T16:02:12;3.97;;;3.58;;
40955;SDS011;26687;48.254;11.454;2023-08-24T16:05:12;7.97;;;4.97;;
40955;SDS011;26687;48.254;11.454;2023-08-24T16:08:12;3.95;;;3.58;;
40955;SDS011;26687;48.254;11.454;2023-08-24T16:11:12;6.77;;;4.83;;
40955;SDS011;26687;48.254;11.454;2023-08-24T16:14:13;6.43;;;3.80;;
40955;SDS011;26687;48.254;11.454;2023-08-24T16:17:14;5.65;;;3.60;;
40955;SDS011;26687;48.254;11.454;2023-08-24T16:20:14;8.25;;;4.10;;
40955;SDS011;26687;48.254;11.454;2023-08-24T16:23:14;4.93;;;3.53;;
40955;SDS011;26687;48.254;11.454;2023-08-24T16:26:14;4.05;;;3.53;;
40955;SDS011;26687;48.254;11.454;2023-08-24T16:29:14;5.80;;;3.70;;
40955;SDS011;26687;48.254;11.454;2023-08-24T16:32:14;6.47;;;5.28;;
40955;SDS011;26687;48.254;11.454;2023-08-24T16:35:15;4.72;;;3.67;;
40955;SDS011;26687;48.254;11.454;2023-08-24T16:38:15;8.53;;;4.73;;
40955;SDS011;26687;48.254;11.454;2023-08-24T16:41:15;3.77;;;3.20;;
40955;SDS011;26687;48.254;11.454;2023-08-24T16:44:15;5.13;;;3.70;;
40955;SDS011;26687;48.254;11.454;2023-08-24T16:47:15;4.57;;;3.80;;
40955;SDS011;26687;48.254;11.454;2023-08-24T16:50:16;4.20;;;3.67;;
40955;SDS011;26687;48.254;11.454;2023-08-24T16:53:16;5.93;;;3.30;;
40955;SDS011;26687;48.254;11.454;2023-08-24T16:56:16;5.35;;;3.83;;
40955;SDS011;26687;48.254;11.454;2023-08-24T16:59:16;4.80;;;3.50;;
40955;SDS011;26687;48.254;11.454;2023-08-24T17:02:16;5.43;;;3.90;;
40955;SDS011;26687;48.254;11.454;2023-08-24T17:05:16;6.63;;;5.10;;
40955;SDS011;26687;48.254;11.454;2023-08-24T17:08:17;23.33;;;8.52;;
40955;SDS011;26687;48.254;11.454;2023-08-24T17:11:17;4.20;;;3.57;;
40955;SDS011;26687;48.254;11.454;2023-08-24T17:14:23;4.53;;;4.13;;
40955;SDS011;26687;48.254;11.454;2023-08-24T17:17:23;5.35;;;4.13;;
40955;SDS011;26687;48.254;11.454;2023-08-24T17:20:24;4.78;;;4.10;;
40955;SDS011;26687;48.254;11.454;2023-08-24T17:23:25;5.00;;;4.05;;
40955;SDS011;26687;48.254;11.454;2023-08-24T17:26:25;5.88;;;4.60;;
40955;SDS011;26687;48.254;11.454;2023-08-24T17:29:25;6.60;;;4.47;;
40955;SDS011;26687;48.254;11.454;2023-08-24T17:32:25;9.30;;;4.60;;
40955;SDS011;26687;48.254;11.454;2023-08-24T17:35:28;4.78;;;3.67;;
40955;SDS011;26687;48.254;11.454;2023-08-24T17:38:28;5.63;;;4.07;;
40955;SDS011;26687;48.254;11.454;2023-08-24T17:41:29;5.47;;;3.92;;
40955;SDS011;26687;48.254;11.454;2023-08-24T17:44:29;5.18;;;4.20;;
40955;SDS011;26687;48.254;11.454;2023-08-24T17:47:29;7.30;;;5.13;;
40955;SDS011;26687;48.254;11.454;2023-08-24T17:50:30;4.80;;;4.35;;
40955;SDS011;26687;48.254;11.454;2023-08-24T17:53:30;5.75;;;3.88;;
40955;SDS011;26687;48.254;11.454;2023-08-24T17:56:30;7.50;;;3.63;;
40955;SDS011;26687;48.254;11.454;2023-08-24T17:59:31;5.18;;;3.95;;
40955;SDS011;26687;48.254;11.454;2023-08-24T18:02:32;5.43;;;4.35;;
40955;SDS011;26687;48.254;11.454;2023-08-24T18:05:32;6.55;;;4.10;;